Bedford, Michigan
Current Conditions -  °F | °C
As of 6:53 AM on Friday 19 Dec 2014 (Local Time) from KBTL Reporting Station
Overcast Overcast  
Wind Chill: 22°   Ceiling: 1100
Heat Index: 29°   Visibility: 10mi
Dew Point: 25°   Wind: 7mph
Humidity: 85%   Direction: 320°NW
Pressure: 30.23"   Gusts: NA
Location:  42.4°N, 85.23°W
Report Text: KBTL 191153Z 32006KT 10SM OVC011 M02/M04 A3023 RMK AO2 SLP247 T10171039 11017 21017 53007
Loading
Personal Weather Stations






























Interactive Weather Map New forecast layout! Learn more

10-Day Weather Forecast

Advertisements
Track Severe Weather on mobile